TDCF/DCF METAR and TAF weather

Enter ICAO airport designator
Station Type Date Time Source
TDCF METAR 2019/09/19 22:00 UTC NOAA

TDCF 192200Z 24001KT 9999 SCT018 30/24 Q1008


Station Type Date Time Source
TDCF Decoded METAR 2019/09/19 22:00 UTC NOAA

Canefield Airport, Dominica (TDCF) 15-32N 061-24W 5M
Sep 19, 2019 - 06:00 PM EDT / 2019.09.19 2200 UTC
Wind: from the WSW (240 degrees) at 1 MPH (1 KT):0
Visibility: greater than 7 mile(s):0
Sky conditions: partly cloudy
Temperature: 86 F (30 C)
Heat index: 95.0 F (35.0 C):1
Dew Point: 75 F (24 C)
Relative Humidity: 70%
Pressure (altimeter): 29.77 in. Hg (1008 hPa)
ob: TDCF 192200Z 24001KT 9999 SCT018 30/24 Q1008
cycle: 22

Station Type Date Time Source
TDCF TAF 2012/05/01 18:15 UTC NOAA

TAF TDCF 011600Z 0118/0218 110010KT 9999 SCT018 BKN030
TEMPO 0118/0206 6000 SHRA BKN014 BKN070

Example: see airport list